sensor_id;sensor_type;location;lat;lon;timestamp;temperature;humidity
6865;DHT22;3471;49.678;8.388;2022-11-20T00:00:24;5.40;99.90
6865;DHT22;3471;49.678;8.388;2022-11-20T00:02:50;5.40;99.90
6865;DHT22;3471;49.678;8.388;2022-11-20T00:05:15;5.40;99.90
6865;DHT22;3471;49.678;8.388;2022-11-20T00:07:41;5.40;99.90
6865;DHT22;3471;49.678;8.388;2022-11-20T00:10:07;5.40;99.90
6865;DHT22;3471;49.678;8.388;2022-11-20T00:12:32;5.40;99.90
6865;DHT22;3471;49.678;8.388;2022-11-20T00:14:58;5.40;99.90
6865;DHT22;3471;49.678;8.388;2022-11-20T00:17:24;5.40;99.90
6865;DHT22;3471;49.678;8.388;2022-11-20T00:19:49;5.40;99.90
6865;DHT22;3471;49.678;8.388;2022-11-20T00:22:15;5.50;99.90
6865;DHT22;3471;49.678;8.388;2022-11-20T00:24:40;5.50;99.90
6865;DHT22;3471;49.678;8.388;2022-11-20T00:27:06;5.50;99.90
6865;DHT22;3471;49.678;8.388;2022-11-20T00:29:31;5.50;99.90
6865;DHT22;3471;49.678;8.388;2022-11-20T00:31:57;5.50;99.90
6865;DHT22;3471;49.678;8.388;2022-11-20T00:34:22;5.40;99.90
6865;DHT22;3471;49.678;8.388;2022-11-20T00:36:48;5.40;99.90
6865;DHT22;3471;49.678;8.388;2022-11-20T00:39:13;5.40;99.90
6865;DHT22;3471;49.678;8.388;2022-11-20T00:41:39;5.40;99.90
6865;DHT22;3471;49.678;8.388;2022-11-20T00:44:04;5.40;99.90
6865;DHT22;3471;49.678;8.388;2022-11-20T00:46:30;5.40;99.90
6865;DHT22;3471;49.678;8.388;2022-11-20T00:48:56;5.30;99.90
6865;DHT22;3471;49.678;8.388;2022-11-20T00:51:24;5.30;99.90
6865;DHT22;3471;49.678;8.388;2022-11-20T00:53:50;5.30;99.90
6865;DHT22;3471;49.678;8.388;2022-11-20T00:56:17;5.30;99.90
6865;DHT22;3471;49.678;8.388;2022-11-20T00:58:45;5.30;99.90
6865;DHT22;3471;49.678;8.388;2022-11-20T01:01:20;5.30;99.90
6865;DHT22;3471;49.678;8.388;2022-11-20T01:03:50;5.30;99.90
6865;DHT22;3471;49.678;8.388;2022-11-20T01:06:28;5.30;99.90
6865;DHT22;3471;49.678;8.388;2022-11-20T01:08:56;5.30;99.90
6865;DHT22;3471;49.678;8.388;2022-11-20T01:11:28;5.30;99.90
6865;DHT22;3471;49.678;8.388;2022-11-20T01:13:55;5.40;99.90
6865;DHT22;3471;49.678;8.388;2022-11-20T01:16:30;5.40;99.90
6865;DHT22;3471;49.678;8.388;2022-11-20T01:18:58;5.40;99.90
6865;DHT22;3471;49.678;8.388;2022-11-20T01:21:33;5.40;99.90
6865;DHT22;3471;49.678;8.388;2022-11-20T01:23:59;5.40;99.90
6865;DHT22;3471;49.678;8.388;2022-11-20T01:26:30;5.40;99.90
6865;DHT22;3471;49.678;8.388;2022-11-20T01:28:57;5.40;99.90
6865;DHT22;3471;49.678;8.388;2022-11-20T01:31:28;5.50;99.90
6865;DHT22;3471;49.678;8.388;2022-11-20T01:33:57;5.50;99.90
6865;DHT22;3471;49.678;8.388;2022-11-20T01:36:25;5.40;99.90
6865;DHT22;3471;49.678;8.388;2022-11-20T01:38:53;5.40;99.90
6865;DHT22;3471;49.678;8.388;2022-11-20T01:41:19;5.40;99.90
6865;DHT22;3471;49.678;8.388;2022-11-20T01:44:04;5.40;99.90
6865;DHT22;3471;49.678;8.388;2022-11-20T01:46:36;5.40;99.90
6865;DHT22;3471;49.678;8.388;2022-11-20T01:49:21;5.40;99.90
6865;DHT22;3471;49.678;8.388;2022-11-20T01:51:54;5.40;99.90
6865;DHT22;3471;49.678;8.388;2022-11-20T01:54:43;5.50;99.90
6865;DHT22;3471;49.678;8.388;2022-11-20T01:57:12;5.50;99.90
6865;DHT22;3471;49.678;8.388;2022-11-20T01:59:50;5.50;99.90
6865;DHT22;3471;49.678;8.388;2022-11-20T02:02:18;5.50;99.90
6865;DHT22;3471;49.678;8.388;2022-11-20T02:04:44;5.40;99.90
6865;DHT22;3471;49.678;8.388;2022-11-20T02:07:10;5.40;99.90
6865;DHT22;3471;49.678;8.388;2022-11-20T02:09:36;5.40;99.90
6865;DHT22;3471;49.678;8.388;2022-11-20T02:12:03;5.40;99.90
6865;DHT22;3471;49.678;8.388;2022-11-20T02:14:29;5.40;99.90
6865;DHT22;3471;49.678;8.388;2022-11-20T02:16:55;5.40;99.90
6865;DHT22;3471;49.678;8.388;2022-11-20T02:19:30;5.40;99.90
6865;DHT22;3471;49.678;8.388;2022-11-20T02:22:02;5.40;99.90
6865;DHT22;3471;49.678;8.388;2022-11-20T02:24:31;5.40;99.90
6865;DHT22;3471;49.678;8.388;2022-11-20T02:27:03;5.40;99.90
6865;DHT22;3471;49.678;8.388;2022-11-20T02:29:52;5.40;99.90
6865;DHT22;3471;49.678;8.388;2022-11-20T02:32:32;5.40;99.90
6865;DHT22;3471;49.678;8.388;2022-11-20T02:35:05;5.40;99.90
6865;DHT22;3471;49.678;8.388;2022-11-20T02:37:35;5.40;99.90
6865;DHT22;3471;49.678;8.388;2022-11-20T02:40:01;5.40;99.90
6865;DHT22;3471;49.678;8.388;2022-11-20T02:42:27;5.50;99.90
6865;DHT22;3471;49.678;8.388;2022-11-20T02:44:52;5.40;99.90
6865;DHT22;3471;49.678;8.388;2022-11-20T02:47:18;5.40;99.90
6865;DHT22;3471;49.678;8.388;2022-11-20T02:49:43;5.50;99.90
6865;DHT22;3471;49.678;8.388;2022-11-20T02:52:09;5.50;99.90
6865;DHT22;3471;49.678;8.388;2022-11-20T02:54:34;5.50;99.90
6865;DHT22;3471;49.678;8.388;2022-11-20T02:57:00;5.50;99.90
6865;DHT22;3471;49.678;8.388;2022-11-20T02:59:26;5.50;99.90
6865;DHT22;3471;49.678;8.388;2022-11-20T03:01:51;5.50;99.90
6865;DHT22;3471;49.678;8.388;2022-11-20T03:04:17;5.50;99.90
6865;DHT22;3471;49.678;8.388;2022-11-20T03:06:42;5.50;99.90
6865;DHT22;3471;49.678;8.388;2022-11-20T03:09:08;5.50;99.90
6865;DHT22;3471;49.678;8.388;2022-11-20T03:11:34;5.50;99.90
6865;DHT22;3471;49.678;8.388;2022-11-20T03:14:04;5.50;99.90
6865;DHT22;3471;49.678;8.388;2022-11-20T03:16:31;5.50;99.90
6865;DHT22;3471;49.678;8.388;2022-11-20T03:18:56;5.60;99.90
6865;DHT22;3471;49.678;8.388;2022-11-20T03:21:22;5.50;99.90
6865;DHT22;3471;49.678;8.388;2022-11-20T03:23:48;5.60;99.90
6865;DHT22;3471;49.678;8.388;2022-11-20T03:26:20;5.60;99.90
6865;DHT22;3471;49.678;8.388;2022-11-20T03:28:48;5.60;99.90
6865;DHT22;3471;49.678;8.388;2022-11-20T03:31:16;5.60;99.90
6865;DHT22;3471;49.678;8.388;2022-11-20T03:33:42;5.60;99.90
6865;DHT22;3471;49.678;8.388;2022-11-20T03:36:11;5.60;99.90
6865;DHT22;3471;49.678;8.388;2022-11-20T03:38:37;5.60;99.90
6865;DHT22;3471;49.678;8.388;2022-11-20T03:41:05;5.60;99.90
6865;DHT22;3471;49.678;8.388;2022-11-20T03:43:32;5.50;99.90
6865;DHT22;3471;49.678;8.388;2022-11-20T03:45:58;5.50;99.90
6865;DHT22;3471;49.678;8.388;2022-11-20T03:48:23;5.50;99.90
6865;DHT22;3471;49.678;8.388;2022-11-20T03:50:49;5.60;99.90
6865;DHT22;3471;49.678;8.388;2022-11-20T03:53:15;5.60;99.90
6865;DHT22;3471;49.678;8.388;2022-11-20T03:55:41;5.60;99.90
6865;DHT22;3471;49.678;8.388;2022-11-20T03:58:07;5.60;99.90
6865;DHT22;3471;49.678;8.388;2022-11-20T04:00:32;5.60;99.90
6865;DHT22;3471;49.678;8.388;2022-11-20T04:02:58;5.50;99.90
6865;DHT22;3471;49.678;8.388;2022-11-20T04:05:24;5.50;99.90
6865;DHT22;3471;49.678;8.388;2022-11-20T04:07:50;5.50;99.90
6865;DHT22;3471;49.678;8.388;2022-11-20T04:10:16;5.50;99.90
6865;DHT22;3471;49.678;8.388;2022-11-20T04:12:41;5.50;99.90
6865;DHT22;3471;49.678;8.388;2022-11-20T04:15:07;5.60;99.90
6865;DHT22;3471;49.678;8.388;2022-11-20T04:17:33;5.50;99.90
6865;DHT22;3471;49.678;8.388;2022-11-20T04:19:58;5.50;99.90
6865;DHT22;3471;49.678;8.388;2022-11-20T04:22:24;5.50;99.90
6865;DHT22;3471;49.678;8.388;2022-11-20T04:24:49;5.50;99.90
6865;DHT22;3471;49.678;8.388;2022-11-20T04:27:15;5.60;99.90
6865;DHT22;3471;49.678;8.388;2022-11-20T04:29:40;5.60;99.90
6865;DHT22;3471;49.678;8.388;2022-11-20T04:32:06;5.60;99.90
6865;DHT22;3471;49.678;8.388;2022-11-20T04:34:31;5.60;99.90
6865;DHT22;3471;49.678;8.388;2022-11-20T04:36:57;5.60;99.90
6865;DHT22;3471;49.678;8.388;2022-11-20T04:39:22;5.60;99.90
6865;DHT22;3471;49.678;8.388;2022-11-20T04:41:48;5.60;99.90
6865;DHT22;3471;49.678;8.388;2022-11-20T04:44:33;5.60;99.90
6865;DHT22;3471;49.678;8.388;2022-11-20T04:46:59;5.70;99.90
6865;DHT22;3471;49.678;8.388;2022-11-20T04:49:25;5.70;99.90
6865;DHT22;3471;49.678;8.388;2022-11-20T04:51:53;5.60;99.90
6865;DHT22;3471;49.678;8.388;2022-11-20T04:54:19;5.60;99.90
6865;DHT22;3471;49.678;8.388;2022-11-20T04:56:47;5.70;99.90
6865;DHT22;3471;49.678;8.388;2022-11-20T04:59:13;5.70;99.90
6865;DHT22;3471;49.678;8.388;2022-11-20T05:01:39;5.70;99.90
6865;DHT22;3471;49.678;8.388;2022-11-20T05:04:04;5.70;99.90
6865;DHT22;3471;49.678;8.388;2022-11-20T05:06:31;5.70;99.90
6865;DHT22;3471;49.678;8.388;2022-11-20T05:08:56;5.70;99.90
6865;DHT22;3471;49.678;8.388;2022-11-20T05:11:22;5.70;99.90
6865;DHT22;3471;49.678;8.388;2022-11-20T05:13:49;5.80;99.90
6865;DHT22;3471;49.678;8.388;2022-11-20T05:16:17;5.80;99.90
6865;DHT22;3471;49.678;8.388;2022-11-20T05:18:44;5.80;99.90
6865;DHT22;3471;49.678;8.388;2022-11-20T05:21:11;5.80;99.90
6865;DHT22;3471;49.678;8.388;2022-11-20T05:23:37;5.80;99.90
6865;DHT22;3471;49.678;8.388;2022-11-20T05:26:03;5.80;99.90
6865;DHT22;3471;49.678;8.388;2022-11-20T05:28:30;5.80;99.90
6865;DHT22;3471;49.678;8.388;2022-11-20T05:30:56;5.80;99.90
6865;DHT22;3471;49.678;8.388;2022-11-20T05:33:28;5.80;99.90
6865;DHT22;3471;49.678;8.388;2022-11-20T05:35:58;5.80;99.90
6865;DHT22;3471;49.678;8.388;2022-11-20T05:38:23;5.80;99.90
6865;DHT22;3471;49.678;8.388;2022-11-20T05:40:49;5.80;99.90
6865;DHT22;3471;49.678;8.388;2022-11-20T05:43:14;5.80;99.90
6865;DHT22;3471;49.678;8.388;2022-11-20T05:45:40;5.80;99.90
6865;DHT22;3471;49.678;8.388;2022-11-20T05:48:05;5.80;99.90
6865;DHT22;3471;49.678;8.388;2022-11-20T05:50:31;5.80;99.90
6865;DHT22;3471;49.678;8.388;2022-11-20T05:53:00;5.80;99.90
6865;DHT22;3471;49.678;8.388;2022-11-20T05:55:26;5.80;99.90
6865;DHT22;3471;49.678;8.388;2022-11-20T05:57:53;5.80;99.90
6865;DHT22;3471;49.678;8.388;2022-11-20T06:00:20;5.80;99.90
6865;DHT22;3471;49.678;8.388;2022-11-20T06:02:45;5.80;99.90
6865;DHT22;3471;49.678;8.388;2022-11-20T06:05:11;5.80;99.90
6865;DHT22;3471;49.678;8.388;2022-11-20T06:07:37;5.80;99.90
6865;DHT22;3471;49.678;8.388;2022-11-20T06:10:02;5.80;99.90
6865;DHT22;3471;49.678;8.388;2022-11-20T06:12:28;5.80;99.90
6865;DHT22;3471;49.678;8.388;2022-11-20T06:14:53;5.80;99.90
6865;DHT22;3471;49.678;8.388;2022-11-20T06:17:19;5.80;99.90
6865;DHT22;3471;49.678;8.388;2022-11-20T06:19:45;5.80;99.90
6865;DHT22;3471;49.678;8.388;2022-11-20T06:22:10;5.80;99.90
6865;DHT22;3471;49.678;8.388;2022-11-20T06:24:36;5.80;99.90
6865;DHT22;3471;49.678;8.388;2022-11-20T06:27:01;5.80;99.90
6865;DHT22;3471;49.678;8.388;2022-11-20T06:29:27;5.80;99.90
6865;DHT22;3471;49.678;8.388;2022-11-20T06:31:53;5.80;99.90
6865;DHT22;3471;49.678;8.388;2022-11-20T06:34:18;5.80;99.90
6865;DHT22;3471;49.678;8.388;2022-11-20T06:36:44;5.80;99.90
6865;DHT22;3471;49.678;8.388;2022-11-20T06:39:09;5.80;99.90
6865;DHT22;3471;49.678;8.388;2022-11-20T06:41:35;5.80;99.90
6865;DHT22;3471;49.678;8.388;2022-11-20T06:44:01;5.80;99.90
6865;DHT22;3471;49.678;8.388;2022-11-20T06:46:26;5.80;99.90
6865;DHT22;3471;49.678;8.388;2022-11-20T06:48:52;5.80;99.90
6865;DHT22;3471;49.678;8.388;2022-11-20T06:51:18;5.80;99.90
6865;DHT22;3471;49.678;8.388;2022-11-20T06:53:44;5.80;99.90
6865;DHT22;3471;49.678;8.388;2022-11-20T06:56:09;5.90;99.90
6865;DHT22;3471;49.678;8.388;2022-11-20T06:58:36;5.90;99.90
6865;DHT22;3471;49.678;8.388;2022-11-20T07:01:20;5.90;99.90
6865;DHT22;3471;49.678;8.388;2022-11-20T07:03:49;5.90;99.90
6865;DHT22;3471;49.678;8.388;2022-11-20T07:06:16;5.90;99.90
6865;DHT22;3471;49.678;8.388;2022-11-20T07:08:41;5.90;99.90
6865;DHT22;3471;49.678;8.388;2022-11-20T07:11:07;5.90;99.90
6865;DHT22;3471;49.678;8.388;2022-11-20T07:13:33;5.90;99.90
6865;DHT22;3471;49.678;8.388;2022-11-20T07:16:00;5.90;99.90
6865;DHT22;3471;49.678;8.388;2022-11-20T07:18:26;6.00;99.90
6865;DHT22;3471;49.678;8.388;2022-11-20T07:20:52;6.00;99.90
6865;DHT22;3471;49.678;8.388;2022-11-20T07:23:18;6.00;99.90
6865;DHT22;3471;49.678;8.388;2022-11-20T07:25:44;6.00;99.90
6865;DHT22;3471;49.678;8.388;2022-11-20T07:28:09;6.00;99.90
6865;DHT22;3471;49.678;8.388;2022-11-20T07:30:36;6.10;99.90
6865;DHT22;3471;49.678;8.388;2022-11-20T07:33:02;6.10;99.90
6865;DHT22;3471;49.678;8.388;2022-11-20T07:35:27;6.10;99.90
6865;DHT22;3471;49.678;8.388;2022-11-20T07:37:53;6.00;99.90
6865;DHT22;3471;49.678;8.388;2022-11-20T07:40:19;6.00;99.90
6865;DHT22;3471;49.678;8.388;2022-11-20T07:45:14;6.00;99.90
6865;DHT22;3471;49.678;8.388;2022-11-20T07:47:40;6.10;99.90
6865;DHT22;3471;49.678;8.388;2022-11-20T07:50:06;6.10;99.90
6865;DHT22;3471;49.678;8.388;2022-11-20T07:52:32;6.10;99.90
6865;DHT22;3471;49.678;8.388;2022-11-20T07:54:58;6.10;99.90
6865;DHT22;3471;49.678;8.388;2022-11-20T07:57:23;6.10;99.90
6865;DHT22;3471;49.678;8.388;2022-11-20T07:59:49;6.10;99.90
6865;DHT22;3471;49.678;8.388;2022-11-20T08:02:14;6.10;99.90
6865;DHT22;3471;49.678;8.388;2022-11-20T08:04:40;6.10;99.90
6865;DHT22;3471;49.678;8.388;2022-11-20T08:07:05;6.10;99.90
6865;DHT22;3471;49.678;8.388;2022-11-20T08:09:31;6.10;99.90
6865;DHT22;3471;49.678;8.388;2022-11-20T08:11:57;6.10;99.90
6865;DHT22;3471;49.678;8.388;2022-11-20T08:14:41;6.10;99.90
6865;DHT22;3471;49.678;8.388;2022-11-20T08:17:07;6.00;99.90
6865;DHT22;3471;49.678;8.388;2022-11-20T08:19:32;6.00;99.90
6865;DHT22;3471;49.678;8.388;2022-11-20T08:21:58;6.00;99.90
6865;DHT22;3471;49.678;8.388;2022-11-20T08:24:24;6.00;99.90
6865;DHT22;3471;49.678;8.388;2022-11-20T08:26:51;6.00;99.90
6865;DHT22;3471;49.678;8.388;2022-11-20T08:29:17;6.10;99.90
6865;DHT22;3471;49.678;8.388;2022-11-20T08:31:43;6.10;99.90
6865;DHT22;3471;49.678;8.388;2022-11-20T08:34:08;6.10;99.90
6865;DHT22;3471;49.678;8.388;2022-11-20T08:36:34;6.10;99.90
6865;DHT22;3471;49.678;8.388;2022-11-20T08:39:00;6.10;99.90
6865;DHT22;3471;49.678;8.388;2022-11-20T08:41:27;6.20;99.90
6865;DHT22;3471;49.678;8.388;2022-11-20T08:43:57;6.20;99.90
6865;DHT22;3471;49.678;8.388;2022-11-20T08:46:24;6.20;99.90
6865;DHT22;3471;49.678;8.388;2022-11-20T08:48:50;6.20;99.90
6865;DHT22;3471;49.678;8.388;2022-11-20T08:51:16;6.20;99.90
6865;DHT22;3471;49.678;8.388;2022-11-20T08:53:42;6.20;99.90
6865;DHT22;3471;49.678;8.388;2022-11-20T08:56:08;6.20;99.90
6865;DHT22;3471;49.678;8.388;2022-11-20T08:58:35;6.20;99.90
6865;DHT22;3471;49.678;8.388;2022-11-20T09:01:01;6.20;99.90
6865;DHT22;3471;49.678;8.388;2022-11-20T09:03:27;6.20;99.90
6865;DHT22;3471;49.678;8.388;2022-11-20T09:06:00;6.20;99.90
6865;DHT22;3471;49.678;8.388;2022-11-20T09:08:26;6.20;99.90
6865;DHT22;3471;49.678;8.388;2022-11-20T09:10:54;6.20;99.90
6865;DHT22;3471;49.678;8.388;2022-11-20T09:13:21;6.30;99.90
6865;DHT22;3471;49.678;8.388;2022-11-20T09:15:46;6.30;99.90
6865;DHT22;3471;49.678;8.388;2022-11-20T09:18:12;6.40;99.90
6865;DHT22;3471;49.678;8.388;2022-11-20T09:20:38;6.40;99.90
6865;DHT22;3471;49.678;8.388;2022-11-20T09:23:03;6.40;99.90
6865;DHT22;3471;49.678;8.388;2022-11-20T09:25:29;6.40;99.90
6865;DHT22;3471;49.678;8.388;2022-11-20T09:27:59;6.50;99.90
6865;DHT22;3471;49.678;8.388;2022-11-20T09:30:25;6.50;99.90
6865;DHT22;3471;49.678;8.388;2022-11-20T09:32:50;6.50;99.90
6865;DHT22;3471;49.678;8.388;2022-11-20T09:35:16;6.50;99.90
6865;DHT22;3471;49.678;8.388;2022-11-20T09:37:43;6.50;99.90
6865;DHT22;3471;49.678;8.388;2022-11-20T09:40:27;6.50;99.90
6865;DHT22;3471;49.678;8.388;2022-11-20T09:48:43;6.50;99.90
6865;DHT22;3471;49.678;8.388;2022-11-20T09:51:39;6.60;99.90
6865;DHT22;3471;49.678;8.388;2022-11-20T09:54:18;6.60;99.90
6865;DHT22;3471;49.678;8.388;2022-11-20T09:56:47;6.60;99.90
6865;DHT22;3471;49.678;8.388;2022-11-20T10:01:58;6.50;99.90
6865;DHT22;3471;49.678;8.388;2022-11-20T10:04:25;6.60;99.90
6865;DHT22;3471;49.678;8.388;2022-11-20T10:07:07;6.60;99.90
6865;DHT22;3471;49.678;8.388;2022-11-20T10:09:40;6.60;99.90
6865;DHT22;3471;49.678;8.388;2022-11-20T10:15:22;6.60;99.90
6865;DHT22;3471;49.678;8.388;2022-11-20T10:31:01;6.80;99.90
6865;DHT22;3471;49.678;8.388;2022-11-20T10:33:33;6.80;99.90
6865;DHT22;3471;49.678;8.388;2022-11-20T10:36:26;6.80;99.90
6865;DHT22;3471;49.678;8.388;2022-11-20T10:39:00;6.80;99.90
6865;DHT22;3471;49.678;8.388;2022-11-20T10:41:30;6.80;99.90
6865;DHT22;3471;49.678;8.388;2022-11-20T10:44:09;6.80;99.90
6865;DHT22;3471;49.678;8.388;2022-11-20T10:46:41;6.90;99.90
6865;DHT22;3471;49.678;8.388;2022-11-20T10:49:14;6.90;99.90
6865;DHT22;3471;49.678;8.388;2022-11-20T10:54:17;7.00;99.90
6865;DHT22;3471;49.678;8.388;2022-11-20T10:56:51;7.00;99.90
6865;DHT22;3471;49.678;8.388;2022-11-20T10:59:45;7.00;99.90
6865;DHT22;3471;49.678;8.388;2022-11-20T11:02:23;7.10;99.90
6865;DHT22;3471;49.678;8.388;2022-11-20T11:04:53;7.20;99.90
6865;DHT22;3471;49.678;8.388;2022-11-20T11:07:33;7.20;99.90
6865;DHT22;3471;49.678;8.388;2022-11-20T11:10:00;7.30;99.90
6865;DHT22;3471;49.678;8.388;2022-11-20T11:12:28;7.40;99.90
6865;DHT22;3471;49.678;8.388;2022-11-20T11:14:55;7.50;99.90
6865;DHT22;3471;49.678;8.388;2022-11-20T11:17:31;7.50;99.90
6865;DHT22;3471;49.678;8.388;2022-11-20T11:20:18;7.60;99.90
6865;DHT22;3471;49.678;8.388;2022-11-20T11:22:53;7.60;99.90
6865;DHT22;3471;49.678;8.388;2022-11-20T11:27:55;7.60;99.90
6865;DHT22;3471;49.678;8.388;2022-11-20T11:30:23;7.70;99.90
6865;DHT22;3471;49.678;8.388;2022-11-20T11:32:48;7.90;99.90
6865;DHT22;3471;49.678;8.388;2022-11-20T11:35:26;8.10;99.90
6865;DHT22;3471;49.678;8.388;2022-11-20T11:37:55;8.40;99.90
6865;DHT22;3471;49.678;8.388;2022-11-20T11:40:27;8.60;99.90
6865;DHT22;3471;49.678;8.388;2022-11-20T11:42:59;8.90;99.90
6865;DHT22;3471;49.678;8.388;2022-11-20T11:45:26;9.20;99.90
6865;DHT22;3471;49.678;8.388;2022-11-20T11:47:54;9.30;99.90
6865;DHT22;3471;49.678;8.388;2022-11-20T11:50:23;9.30;99.90
6865;DHT22;3471;49.678;8.388;2022-11-20T11:53:11;9.30;99.90
6865;DHT22;3471;49.678;8.388;2022-11-20T12:00:39;9.30;99.90
6865;DHT22;3471;49.678;8.388;2022-11-20T12:03:18;9.20;99.90
6865;DHT22;3471;49.678;8.388;2022-11-20T12:06:05;9.20;99.90
6865;DHT22;3471;49.678;8.388;2022-11-20T12:08:49;9.10;99.90
6865;DHT22;3471;49.678;8.388;2022-11-20T12:11:24;9.00;99.90
6865;DHT22;3471;49.678;8.388;2022-11-20T12:14:16;8.90;99.90
6865;DHT22;3471;49.678;8.388;2022-11-20T12:16:45;8.80;99.90
6865;DHT22;3471;49.678;8.388;2022-11-20T12:19:13;8.70;99.90
6865;DHT22;3471;49.678;8.388;2022-11-20T12:21:45;8.60;99.90
6865;DHT22;3471;49.678;8.388;2022-11-20T12:43:00;8.70;99.90
6865;DHT22;3471;49.678;8.388;2022-11-20T12:54:22;8.70;99.90
6865;DHT22;3471;49.678;8.388;2022-11-20T13:08:30;8.70;99.90
6865;DHT22;3471;49.678;8.388;2022-11-20T13:17:00;8.80;99.90
6865;DHT22;3471;49.678;8.388;2022-11-20T13:19:26;8.90;99.90
6865;DHT22;3471;49.678;8.388;2022-11-20T13:21:53;8.90;99.90
6865;DHT22;3471;49.678;8.388;2022-11-20T13:26:45;8.90;99.90
6865;DHT22;3471;49.678;8.388;2022-11-20T13:29:20;9.00;99.90
6865;DHT22;3471;49.678;8.388;2022-11-20T13:31:47;9.00;99.90
6865;DHT22;3471;49.678;8.388;2022-11-20T13:34:26;9.10;99.90
6865;DHT22;3471;49.678;8.388;2022-11-20T13:36:57;9.10;99.90
6865;DHT22;3471;49.678;8.388;2022-11-20T13:39:27;9.20;99.90
6865;DHT22;3471;49.678;8.388;2022-11-20T13:41:55;9.20;99.90
6865;DHT22;3471;49.678;8.388;2022-11-20T13:46:58;9.30;99.90
6865;DHT22;3471;49.678;8.388;2022-11-20T13:49:32;9.40;99.90
6865;DHT22;3471;49.678;8.388;2022-11-20T13:55:22;9.70;99.90
6865;DHT22;3471;49.678;8.388;2022-11-20T14:00:28;9.80;99.90
6865;DHT22;3471;49.678;8.388;2022-11-20T14:03:07;9.90;99.90
6865;DHT22;3471;49.678;8.388;2022-11-20T14:05:38;10.00;99.90
6865;DHT22;3471;49.678;8.388;2022-11-20T14:08:23;10.00;99.90
6865;DHT22;3471;49.678;8.388;2022-11-20T14:10:49;10.00;99.90
6865;DHT22;3471;49.678;8.388;2022-11-20T14:13:20;10.10;99.90
6865;DHT22;3471;49.678;8.388;2022-11-20T14:15:45;10.10;99.90
6865;DHT22;3471;49.678;8.388;2022-11-20T14:18:21;10.10;99.90
6865;DHT22;3471;49.678;8.388;2022-11-20T14:20:47;10.20;99.90
6865;DHT22;3471;49.678;8.388;2022-11-20T14:23:22;10.30;99.90
6865;DHT22;3471;49.678;8.388;2022-11-20T14:25:48;10.30;99.90
6865;DHT22;3471;49.678;8.388;2022-11-20T14:28:27;10.30;99.90
6865;DHT22;3471;49.678;8.388;2022-11-20T14:30:54;10.30;99.90
6865;DHT22;3471;49.678;8.388;2022-11-20T14:33:20;10.20;99.90
6865;DHT22;3471;49.678;8.388;2022-11-20T14:35:52;10.10;99.90
6865;DHT22;3471;49.678;8.388;2022-11-20T14:38:23;10.00;99.90
6865;DHT22;3471;49.678;8.388;2022-11-20T14:40:49;9.80;99.90
6865;DHT22;3471;49.678;8.388;2022-11-20T14:43:24;9.80;99.90
6865;DHT22;3471;49.678;8.388;2022-11-20T14:46:05;9.70;99.90
6865;DHT22;3471;49.678;8.388;2022-11-20T14:48:47;9.60;99.90
6865;DHT22;3471;49.678;8.388;2022-11-20T14:51:37;9.60;99.90
6865;DHT22;3471;49.678;8.388;2022-11-20T14:54:20;9.50;99.90
6865;DHT22;3471;49.678;8.388;2022-11-20T14:57:03;9.40;99.90
6865;DHT22;3471;49.678;8.388;2022-11-20T14:59:33;9.40;99.90
6865;DHT22;3471;49.678;8.388;2022-11-20T15:02:13;9.40;99.90
6865;DHT22;3471;49.678;8.388;2022-11-20T15:04:49;9.30;99.90
6865;DHT22;3471;49.678;8.388;2022-11-20T15:07:48;9.30;99.90
6865;DHT22;3471;49.678;8.388;2022-11-20T15:10:23;9.30;99.90
6865;DHT22;3471;49.678;8.388;2022-11-20T15:13:05;9.20;99.90
6865;DHT22;3471;49.678;8.388;2022-11-20T15:15:54;9.20;99.90
6865;DHT22;3471;49.678;8.388;2022-11-20T15:20:58;9.10;99.90
6865;DHT22;3471;49.678;8.388;2022-11-20T15:23:26;9.10;99.90
6865;DHT22;3471;49.678;8.388;2022-11-20T15:25:52;9.10;99.90
6865;DHT22;3471;49.678;8.388;2022-11-20T15:28:27;9.10;99.90
6865;DHT22;3471;49.678;8.388;2022-11-20T15:30:54;9.10;99.90
6865;DHT22;3471;49.678;8.388;2022-11-20T15:33:21;9.10;99.90
6865;DHT22;3471;49.678;8.388;2022-11-20T15:35:46;9.00;99.90
6865;DHT22;3471;49.678;8.388;2022-11-20T15:38:12;9.00;99.90
6865;DHT22;3471;49.678;8.388;2022-11-20T15:40:38;9.00;99.90
6865;DHT22;3471;49.678;8.388;2022-11-20T15:43:04;8.90;99.90
6865;DHT22;3471;49.678;8.388;2022-11-20T15:45:36;9.00;99.90
6865;DHT22;3471;49.678;8.388;2022-11-20T15:48:03;8.90;99.90
6865;DHT22;3471;49.678;8.388;2022-11-20T15:50:54;8.90;99.90
6865;DHT22;3471;49.678;8.388;2022-11-20T15:53:22;8.90;99.90
6865;DHT22;3471;49.678;8.388;2022-11-20T15:55:48;8.90;99.90
6865;DHT22;3471;49.678;8.388;2022-11-20T15:58:13;8.90;99.90
6865;DHT22;3471;49.678;8.388;2022-11-20T16:00:39;8.90;99.90
6865;DHT22;3471;49.678;8.388;2022-11-20T16:03:11;8.90;99.90
6865;DHT22;3471;49.678;8.388;2022-11-20T16:05:37;8.90;99.90
6865;DHT22;3471;49.678;8.388;2022-11-20T16:08:03;8.90;99.90
6865;DHT22;3471;49.678;8.388;2022-11-20T16:10:28;8.90;99.90
6865;DHT22;3471;49.678;8.388;2022-11-20T16:12:54;8.90;99.90
6865;DHT22;3471;49.678;8.388;2022-11-20T16:15:38;8.90;99.90
6865;DHT22;3471;49.678;8.388;2022-11-20T16:18:18;8.90;99.90
6865;DHT22;3471;49.678;8.388;2022-11-20T16:20:45;8.90;99.90
6865;DHT22;3471;49.678;8.388;2022-11-20T16:23:11;8.90;99.90
6865;DHT22;3471;49.678;8.388;2022-11-20T16:25:37;8.90;99.90
6865;DHT22;3471;49.678;8.388;2022-11-20T16:28:03;8.90;99.90
6865;DHT22;3471;49.678;8.388;2022-11-20T16:30:29;8.80;99.90
6865;DHT22;3471;49.678;8.388;2022-11-20T16:32:55;8.80;99.90
6865;DHT22;3471;49.678;8.388;2022-11-20T16:35:21;8.90;99.90
6865;DHT22;3471;49.678;8.388;2022-11-20T16:37:46;8.90;99.90
6865;DHT22;3471;49.678;8.388;2022-11-20T16:40:12;8.90;99.90
6865;DHT22;3471;49.678;8.388;2022-11-20T16:42:37;8.90;99.90
6865;DHT22;3471;49.678;8.388;2022-11-20T16:45:04;8.80;99.90
6865;DHT22;3471;49.678;8.388;2022-11-20T16:47:34;8.90;99.90
6865;DHT22;3471;49.678;8.388;2022-11-20T16:50:01;8.80;99.90
6865;DHT22;3471;49.678;8.388;2022-11-20T16:52:27;8.80;99.90
6865;DHT22;3471;49.678;8.388;2022-11-20T16:54:52;8.80;99.90
6865;DHT22;3471;49.678;8.388;2022-11-20T16:57:18;8.80;99.90
6865;DHT22;3471;49.678;8.388;2022-11-20T16:59:44;8.80;99.90
6865;DHT22;3471;49.678;8.388;2022-11-20T17:02:09;8.90;99.90
6865;DHT22;3471;49.678;8.388;2022-11-20T17:04:35;8.80;99.90
6865;DHT22;3471;49.678;8.388;2022-11-20T17:07:01;8.80;99.90
6865;DHT22;3471;49.678;8.388;2022-11-20T17:09:27;8.70;99.90
6865;DHT22;3471;49.678;8.388;2022-11-20T17:11:53;8.70;99.90
6865;DHT22;3471;49.678;8.388;2022-11-20T17:14:19;8.70;99.90
6865;DHT22;3471;49.678;8.388;2022-11-20T17:16:45;8.70;99.90
6865;DHT22;3471;49.678;8.388;2022-11-20T17:19:11;8.70;99.90
6865;DHT22;3471;49.678;8.388;2022-11-20T17:21:37;8.60;99.90
6865;DHT22;3471;49.678;8.388;2022-11-20T17:24:09;8.60;99.90
6865;DHT22;3471;49.678;8.388;2022-11-20T17:26:37;8.60;99.90
6865;DHT22;3471;49.678;8.388;2022-11-20T17:29:09;8.60;99.90
6865;DHT22;3471;49.678;8.388;2022-11-20T17:31:36;8.60;99.90
6865;DHT22;3471;49.678;8.388;2022-11-20T17:34:06;8.60;99.90
6865;DHT22;3471;49.678;8.388;2022-11-20T17:36:32;8.60;99.90
6865;DHT22;3471;49.678;8.388;2022-11-20T17:38:58;8.60;99.90
6865;DHT22;3471;49.678;8.388;2022-11-20T17:41:26;8.60;99.90
6865;DHT22;3471;49.678;8.388;2022-11-20T17:43:53;8.50;99.90
6865;DHT22;3471;49.678;8.388;2022-11-20T17:46:22;8.60;99.90
6865;DHT22;3471;49.678;8.388;2022-11-20T17:48:48;8.50;99.90
6865;DHT22;3471;49.678;8.388;2022-11-20T17:51:19;8.60;99.90
6865;DHT22;3471;49.678;8.388;2022-11-20T17:53:49;8.60;99.90
6865;DHT22;3471;49.678;8.388;2022-11-20T17:56:15;8.60;99.90
6865;DHT22;3471;49.678;8.388;2022-11-20T17:59:00;8.50;99.90
6865;DHT22;3471;49.678;8.388;2022-11-20T18:01:28;8.50;99.90
6865;DHT22;3471;49.678;8.388;2022-11-20T18:03:55;8.40;99.90